sensor_id;sensor_type;location;lat;lon;timestamp;pressure;altitude;pressure_sealevel;temperature;humidity
17072;BME280;7731;50.720;6.912;2024-02-21T00:00:25;100853.19;;;8.06;100.00
17072;BME280;7731;50.720;6.912;2024-02-21T00:02:58;100853.41;;;7.98;100.00
17072;BME280;7731;50.720;6.912;2024-02-21T00:05:37;100857.44;;;8.07;100.00
17072;BME280;7731;50.720;6.912;2024-02-21T00:08:07;100848.16;;;8.03;100.00
17072;BME280;7731;50.720;6.912;2024-02-21T00:10:46;100844.78;;;8.02;100.00
17072;BME280;7731;50.720;6.912;2024-02-21T00:13:19;100835.53;;;7.97;100.00
17072;BME280;7731;50.720;6.912;2024-02-21T00:15:50;100841.06;;;7.81;100.00
17072;BME280;7731;50.720;6.912;2024-02-21T00:18:20;100840.78;;;7.92;100.00
17072;BME280;7731;50.720;6.912;2024-02-21T00:20:56;100840.91;;;7.87;100.00
17072;BME280;7731;50.720;6.912;2024-02-21T00:23:29;100838.56;;;7.80;100.00
17072;BME280;7731;50.720;6.912;2024-02-21T00:26:02;100834.41;;;7.76;100.00
17072;BME280;7731;50.720;6.912;2024-02-21T00:28:36;100834.63;;;7.68;100.00
17072;BME280;7731;50.720;6.912;2024-02-21T00:31:08;100821.72;;;7.73;100.00
17072;BME280;7731;50.720;6.912;2024-02-21T00:33:39;100825.72;;;7.81;100.00
17072;BME280;7731;50.720;6.912;2024-02-21T00:36:11;100816.59;;;7.73;100.00
17072;BME280;7731;50.720;6.912;2024-02-21T00:38:49;100816.44;;;7.79;100.00
17072;BME280;7731;50.720;6.912;2024-02-21T00:41:22;100809.03;;;7.68;100.00
17072;BME280;7731;50.720;6.912;2024-02-21T00:43:55;100810.63;;;7.72;100.00
17072;BME280;7731;50.720;6.912;2024-02-21T00:46:28;100816.47;;;7.77;100.00
17072;BME280;7731;50.720;6.912;2024-02-21T00:49:06;100820.81;;;7.74;100.00
17072;BME280;7731;50.720;6.912;2024-02-21T00:51:42;100815.81;;;7.69;100.00
17072;BME280;7731;50.720;6.912;2024-02-21T00:54:15;100812.34;;;7.72;100.00
17072;BME280;7731;50.720;6.912;2024-02-21T00:56:51;100814.69;;;7.79;100.00
17072;BME280;7731;50.720;6.912;2024-02-21T00:59:24;100812.19;;;7.78;100.00
17072;BME280;7731;50.720;6.912;2024-02-21T01:01:54;100797.78;;;7.74;100.00
17072;BME280;7731;50.720;6.912;2024-02-21T01:04:28;100800.75;;;7.91;100.00
17072;BME280;7731;50.720;6.912;2024-02-21T01:07:03;100802.19;;;8.00;100.00
17072;BME280;7731;50.720;6.912;2024-02-21T01:09:33;100797.53;;;8.14;100.00
17072;BME280;7731;50.720;6.912;2024-02-21T01:12:06;100800.41;;;8.03;100.00
17072;BME280;7731;50.720;6.912;2024-02-21T01:14:37;100789.78;;;8.17;100.00
17072;BME280;7731;50.720;6.912;2024-02-21T01:17:07;100790.06;;;8.07;100.00
17072;BME280;7731;50.720;6.912;2024-02-21T01:19:40;100793.06;;;7.91;100.00
17072;BME280;7731;50.720;6.912;2024-02-21T01:22:23;100790.34;;;7.97;100.00
17072;BME280;7731;50.720;6.912;2024-02-21T01:24:53;100783.63;;;7.93;100.00
17072;BME280;7731;50.720;6.912;2024-02-21T01:27:27;100776.72;;;7.95;100.00
17072;BME280;7731;50.720;6.912;2024-02-21T01:29:57;100776.13;;;7.87;100.00
17072;BME280;7731;50.720;6.912;2024-02-21T01:32:27;100769.22;;;7.89;100.00
17072;BME280;7731;50.720;6.912;2024-02-21T01:35:00;100775.16;;;7.91;100.00
17072;BME280;7731;50.720;6.912;2024-02-21T01:37:30;100770.81;;;7.93;100.00
17072;BME280;7731;50.720;6.912;2024-02-21T01:40:08;100764.94;;;7.91;100.00
17072;BME280;7731;50.720;6.912;2024-02-21T01:42:41;100753.09;;;7.87;100.00
17072;BME280;7731;50.720;6.912;2024-02-21T01:45:19;100760.59;;;7.93;100.00
17072;BME280;7731;50.720;6.912;2024-02-21T01:47:50;100759.47;;;8.03;100.00
17072;BME280;7731;50.720;6.912;2024-02-21T01:50:24;100759.72;;;7.94;100.00
17072;BME280;7731;50.720;6.912;2024-02-21T01:52:58;100753.41;;;7.76;100.00
17072;BME280;7731;50.720;6.912;2024-02-21T01:55:28;100749.75;;;7.85;100.00
17072;BME280;7731;50.720;6.912;2024-02-21T01:58:08;100733.44;;;7.87;100.00
17072;BME280;7731;50.720;6.912;2024-02-21T02:00:40;100736.56;;;7.67;100.00
17072;BME280;7731;50.720;6.912;2024-02-21T02:03:13;100733.84;;;7.74;100.00
17072;BME280;7731;50.720;6.912;2024-02-21T02:05:45;100740.13;;;7.63;100.00
17072;BME280;7731;50.720;6.912;2024-02-21T02:08:20;100739.94;;;7.69;100.00
17072;BME280;7731;50.720;6.912;2024-02-21T02:10:51;100742.69;;;7.63;100.00
17072;BME280;7731;50.720;6.912;2024-02-21T02:13:37;100725.13;;;7.51;100.00
17072;BME280;7731;50.720;6.912;2024-02-21T02:16:15;100731.00;;;7.53;100.00
17072;BME280;7731;50.720;6.912;2024-02-21T02:18:45;100731.88;;;7.52;100.00
17072;BME280;7731;50.720;6.912;2024-02-21T02:21:27;100720.66;;;7.58;100.00
17072;BME280;7731;50.720;6.912;2024-02-21T02:24:05;100716.28;;;7.61;100.00
17072;BME280;7731;50.720;6.912;2024-02-21T02:26:39;100712.06;;;7.90;100.00
17072;BME280;7731;50.720;6.912;2024-02-21T02:29:14;100704.53;;;7.85;100.00
17072;BME280;7731;50.720;6.912;2024-02-21T02:31:45;100704.63;;;7.82;100.00
17072;BME280;7731;50.720;6.912;2024-02-21T02:34:18;100706.09;;;7.91;100.00
17072;BME280;7731;50.720;6.912;2024-02-21T02:36:51;100690.50;;;7.69;100.00
17072;BME280;7731;50.720;6.912;2024-02-21T02:39:31;100686.84;;;7.78;100.00
17072;BME280;7731;50.720;6.912;2024-02-21T02:42:03;100679.69;;;7.89;100.00
17072;BME280;7731;50.720;6.912;2024-02-21T02:44:33;100681.03;;;7.73;100.00
17072;BME280;7731;50.720;6.912;2024-02-21T02:47:06;100678.38;;;7.76;100.00
17072;BME280;7731;50.720;6.912;2024-02-21T02:49:36;100674.00;;;7.79;100.00
17072;BME280;7731;50.720;6.912;2024-02-21T02:52:07;100678.47;;;7.73;100.00
17072;BME280;7731;50.720;6.912;2024-02-21T02:54:40;100690.63;;;7.64;100.00
17072;BME280;7731;50.720;6.912;2024-02-21T02:57:10;100687.28;;;7.62;100.00
17072;BME280;7731;50.720;6.912;2024-02-21T02:59:49;100680.41;;;7.64;100.00
17072;BME280;7731;50.720;6.912;2024-02-21T03:02:26;100681.00;;;7.74;100.00
17072;BME280;7731;50.720;6.912;2024-02-21T03:04:57;100679.53;;;7.65;100.00
17072;BME280;7731;50.720;6.912;2024-02-21T03:07:40;100661.66;;;7.64;100.00
17072;BME280;7731;50.720;6.912;2024-02-21T03:10:14;100656.50;;;7.65;100.00
17072;BME280;7731;50.720;6.912;2024-02-21T03:12:51;100651.56;;;7.59;100.00
17072;BME280;7731;50.720;6.912;2024-02-21T03:15:22;100646.72;;;7.50;100.00
17072;BME280;7731;50.720;6.912;2024-02-21T03:17:52;100635.94;;;7.40;100.00
17072;BME280;7731;50.720;6.912;2024-02-21T03:20:23;100627.06;;;7.22;100.00
17072;BME280;7731;50.720;6.912;2024-02-21T03:22:53;100621.50;;;7.38;100.00
17072;BME280;7731;50.720;6.912;2024-02-21T03:25:26;100607.84;;;7.39;100.00
17072;BME280;7731;50.720;6.912;2024-02-21T03:27:56;100606.00;;;7.44;100.00
17072;BME280;7731;50.720;6.912;2024-02-21T03:30:32;100611.38;;;7.35;100.00
17072;BME280;7731;50.720;6.912;2024-02-21T03:33:05;100598.81;;;7.27;100.00
17072;BME280;7731;50.720;6.912;2024-02-21T03:35:36;100595.94;;;7.38;100.00
17072;BME280;7731;50.720;6.912;2024-02-21T03:38:06;100596.13;;;7.31;100.00
17072;BME280;7731;50.720;6.912;2024-02-21T03:40:41;100604.09;;;7.21;100.00
17072;BME280;7731;50.720;6.912;2024-02-21T03:43:15;100597.81;;;7.01;100.00
17072;BME280;7731;50.720;6.912;2024-02-21T03:45:47;100598.75;;;6.97;100.00
17072;BME280;7731;50.720;6.912;2024-02-21T03:48:18;100597.41;;;6.85;100.00
17072;BME280;7731;50.720;6.912;2024-02-21T03:50:51;100606.50;;;6.94;100.00
17072;BME280;7731;50.720;6.912;2024-02-21T03:53:22;100598.84;;;6.94;100.00
17072;BME280;7731;50.720;6.912;2024-02-21T03:56:00;100600.75;;;6.87;100.00
17072;BME280;7731;50.720;6.912;2024-02-21T03:58:31;100610.00;;;6.91;100.00
17072;BME280;7731;50.720;6.912;2024-02-21T04:01:03;100603.41;;;6.83;100.00
17072;BME280;7731;50.720;6.912;2024-02-21T04:03:39;100595.91;;;6.76;100.00
17072;BME280;7731;50.720;6.912;2024-02-21T04:06:10;100603.34;;;6.86;100.00
17072;BME280;7731;50.720;6.912;2024-02-21T04:08:41;100603.97;;;6.94;100.00
17072;BME280;7731;50.720;6.912;2024-02-21T04:11:13;100601.66;;;7.16;100.00
17072;BME280;7731;50.720;6.912;2024-02-21T04:13:44;100613.19;;;7.29;100.00
17072;BME280;7731;50.720;6.912;2024-02-21T04:16:22;100622.22;;;7.43;100.00
17072;BME280;7731;50.720;6.912;2024-02-21T04:18:53;100613.34;;;7.55;100.00
17072;BME280;7731;50.720;6.912;2024-02-21T04:21:25;100604.31;;;7.43;100.00
17072;BME280;7731;50.720;6.912;2024-02-21T04:23:59;100610.94;;;7.50;100.00
17072;BME280;7731;50.720;6.912;2024-02-21T04:26:36;100596.56;;;7.16;100.00
17072;BME280;7731;50.720;6.912;2024-02-21T04:29:06;100592.44;;;7.42;100.00
17072;BME280;7731;50.720;6.912;2024-02-21T04:31:39;100591.91;;;7.60;100.00
17072;BME280;7731;50.720;6.912;2024-02-21T04:34:12;100599.69;;;7.56;100.00
17072;BME280;7731;50.720;6.912;2024-02-21T04:36:49;100590.22;;;7.59;100.00
17072;BME280;7731;50.720;6.912;2024-02-21T04:39:19;100587.88;;;7.51;100.00
17072;BME280;7731;50.720;6.912;2024-02-21T04:42:01;100582.25;;;7.68;100.00
17072;BME280;7731;50.720;6.912;2024-02-21T04:44:31;100576.28;;;7.69;100.00
17072;BME280;7731;50.720;6.912;2024-02-21T04:47:10;100574.22;;;7.81;100.00
17072;BME280;7731;50.720;6.912;2024-02-21T04:49:42;100569.88;;;7.83;100.00
17072;BME280;7731;50.720;6.912;2024-02-21T04:52:16;100578.03;;;7.67;100.00
17072;BME280;7731;50.720;6.912;2024-02-21T04:54:46;100582.56;;;7.86;100.00
17072;BME280;7731;50.720;6.912;2024-02-21T04:57:31;100572.44;;;7.83;100.00
17072;BME280;7731;50.720;6.912;2024-02-21T05:00:07;100572.03;;;7.95;100.00
17072;BME280;7731;50.720;6.912;2024-02-21T05:02:38;100570.50;;;7.91;100.00
17072;BME280;7731;50.720;6.912;2024-02-21T05:05:14;100570.59;;;7.88;100.00
17072;BME280;7731;50.720;6.912;2024-02-21T05:07:45;100568.81;;;7.90;100.00
17072;BME280;7731;50.720;6.912;2024-02-21T05:10:15;100568.16;;;7.83;100.00
17072;BME280;7731;50.720;6.912;2024-02-21T05:12:49;100571.25;;;7.66;100.00
17072;BME280;7731;50.720;6.912;2024-02-21T05:15:22;100569.97;;;7.80;100.00
17072;BME280;7731;50.720;6.912;2024-02-21T05:17:53;100571.94;;;7.72;100.00
17072;BME280;7731;50.720;6.912;2024-02-21T05:20:26;100565.22;;;7.67;100.00
17072;BME280;7731;50.720;6.912;2024-02-21T05:22:59;100561.00;;;7.95;100.00
17072;BME280;7731;50.720;6.912;2024-02-21T05:25:29;100568.13;;;7.85;100.00
17072;BME280;7731;50.720;6.912;2024-02-21T05:28:03;100560.44;;;7.85;100.00
17072;BME280;7731;50.720;6.912;2024-02-21T05:30:33;100558.66;;;7.87;100.00
17072;BME280;7731;50.720;6.912;2024-02-21T05:33:07;100560.06;;;7.97;100.00
17072;BME280;7731;50.720;6.912;2024-02-21T05:35:37;100555.53;;;7.79;100.00
17072;BME280;7731;50.720;6.912;2024-02-21T05:38:10;100546.72;;;7.87;100.00
17072;BME280;7731;50.720;6.912;2024-02-21T05:40:45;100544.09;;;7.89;100.00
17072;BME280;7731;50.720;6.912;2024-02-21T05:43:18;100535.34;;;7.69;100.00
17072;BME280;7731;50.720;6.912;2024-02-21T05:45:48;100536.00;;;7.76;100.00
17072;BME280;7731;50.720;6.912;2024-02-21T05:48:19;100542.75;;;7.79;100.00
17072;BME280;7731;50.720;6.912;2024-02-21T05:50:50;100539.69;;;7.94;100.00
17072;BME280;7731;50.720;6.912;2024-02-21T05:53:23;100538.22;;;7.87;100.00
17072;BME280;7731;50.720;6.912;2024-02-21T05:55:55;100537.47;;;7.83;100.00
17072;BME280;7731;50.720;6.912;2024-02-21T05:58:31;100540.28;;;7.76;100.00
17072;BME280;7731;50.720;6.912;2024-02-21T06:01:08;100550.31;;;7.82;100.00
17072;BME280;7731;50.720;6.912;2024-02-21T06:03:38;100540.09;;;7.82;100.00
17072;BME280;7731;50.720;6.912;2024-02-21T06:06:21;100538.06;;;7.65;100.00
17072;BME280;7731;50.720;6.912;2024-02-21T06:08:52;100540.84;;;7.57;100.00
17072;BME280;7731;50.720;6.912;2024-02-21T06:11:26;100537.81;;;7.73;100.00
17072;BME280;7731;50.720;6.912;2024-02-21T06:14:01;100535.44;;;7.66;100.00
17072;BME280;7731;50.720;6.912;2024-02-21T06:16:49;100521.28;;;7.83;100.00
17072;BME280;7731;50.720;6.912;2024-02-21T06:19:20;100513.84;;;7.75;100.00
17072;BME280;7731;50.720;6.912;2024-02-21T06:21:53;100525.31;;;7.63;100.00
17072;BME280;7731;50.720;6.912;2024-02-21T06:24:23;100525.41;;;7.60;100.00
17072;BME280;7731;50.720;6.912;2024-02-21T06:26:54;100527.53;;;7.46;100.00
17072;BME280;7731;50.720;6.912;2024-02-21T06:29:26;100527.91;;;7.62;100.00
17072;BME280;7731;50.720;6.912;2024-02-21T06:32:03;100521.84;;;7.64;100.00
17072;BME280;7731;50.720;6.912;2024-02-21T06:34:33;100522.22;;;7.52;100.00
17072;BME280;7731;50.720;6.912;2024-02-21T06:37:04;100519.97;;;7.43;100.00
17072;BME280;7731;50.720;6.912;2024-02-21T06:39:35;100522.22;;;7.52;100.00
17072;BME280;7731;50.720;6.912;2024-02-21T06:42:08;100513.88;;;7.47;100.00
17072;BME280;7731;50.720;6.912;2024-02-21T06:44:41;100506.59;;;7.61;100.00
17072;BME280;7731;50.720;6.912;2024-02-21T06:47:11;100508.78;;;7.74;100.00
17072;BME280;7731;50.720;6.912;2024-02-21T06:49:41;100506.22;;;7.74;100.00
17072;BME280;7731;50.720;6.912;2024-02-21T06:52:12;100499.06;;;7.85;100.00
17072;BME280;7731;50.720;6.912;2024-02-21T06:54:44;100499.25;;;7.79;100.00
17072;BME280;7731;50.720;6.912;2024-02-21T06:57:15;100491.28;;;7.88;100.00
17072;BME280;7731;50.720;6.912;2024-02-21T06:59:48;100494.31;;;7.99;100.00
17072;BME280;7731;50.720;6.912;2024-02-21T07:02:21;100498.81;;;7.93;100.00
17072;BME280;7731;50.720;6.912;2024-02-21T07:04:51;100491.81;;;7.98;100.00
17072;BME280;7731;50.720;6.912;2024-02-21T07:07:22;100493.34;;;8.03;100.00
17072;BME280;7731;50.720;6.912;2024-02-21T07:09:55;100480.03;;;7.92;100.00
17072;BME280;7731;50.720;6.912;2024-02-21T07:12:31;100484.13;;;7.98;100.00
17072;BME280;7731;50.720;6.912;2024-02-21T07:15:11;100475.13;;;8.13;100.00
17072;BME280;7731;50.720;6.912;2024-02-21T07:17:50;100480.53;;;8.03;100.00
17072;BME280;7731;50.720;6.912;2024-02-21T07:20:20;100478.72;;;8.07;100.00
17072;BME280;7731;50.720;6.912;2024-02-21T07:22:51;100476.63;;;7.93;100.00
17072;BME280;7731;50.720;6.912;2024-02-21T07:25:21;100474.47;;;8.06;100.00
17072;BME280;7731;50.720;6.912;2024-02-21T07:27:51;100478.75;;;8.05;100.00
17072;BME280;7731;50.720;6.912;2024-02-21T07:30:29;100482.19;;;8.04;100.00
17072;BME280;7731;50.720;6.912;2024-02-21T07:32:59;100478.59;;;8.10;100.00
17072;BME280;7731;50.720;6.912;2024-02-21T07:35:33;100469.25;;;8.09;100.00
17072;BME280;7731;50.720;6.912;2024-02-21T07:38:05;100469.31;;;8.08;100.00
17072;BME280;7731;50.720;6.912;2024-02-21T07:40:35;100472.97;;;8.26;100.00
17072;BME280;7731;50.720;6.912;2024-02-21T07:43:06;100468.88;;;8.20;100.00
17072;BME280;7731;50.720;6.912;2024-02-21T07:45:39;100472.25;;;8.22;100.00
17072;BME280;7731;50.720;6.912;2024-02-21T07:48:09;100468.97;;;8.17;100.00
17072;BME280;7731;50.720;6.912;2024-02-21T07:50:39;100471.44;;;8.20;100.00
17072;BME280;7731;50.720;6.912;2024-02-21T07:53:12;100471.34;;;8.23;100.00
17072;BME280;7731;50.720;6.912;2024-02-21T07:55:43;100468.28;;;8.37;100.00
17072;BME280;7731;50.720;6.912;2024-02-21T07:58:13;100474.59;;;8.28;100.00
17072;BME280;7731;50.720;6.912;2024-02-21T08:00:46;100472.03;;;8.28;100.00
17072;BME280;7731;50.720;6.912;2024-02-21T08:03:19;100461.63;;;8.58;100.00
17072;BME280;7731;50.720;6.912;2024-02-21T08:05:50;100467.72;;;8.55;100.00
17072;BME280;7731;50.720;6.912;2024-02-21T08:08:20;100465.31;;;8.74;100.00
17072;BME280;7731;50.720;6.912;2024-02-21T08:10:55;100461.19;;;8.70;100.00
17072;BME280;7731;50.720;6.912;2024-02-21T08:13:28;100453.59;;;8.44;100.00
17072;BME280;7731;50.720;6.912;2024-02-21T08:16:01;100447.88;;;8.35;100.00
17072;BME280;7731;50.720;6.912;2024-02-21T08:18:32;100441.31;;;8.77;100.00
17072;BME280;7731;50.720;6.912;2024-02-21T08:21:06;100430.97;;;9.02;100.00
17072;BME280;7731;50.720;6.912;2024-02-21T08:23:37;100430.19;;;9.00;100.00
17072;BME280;7731;50.720;6.912;2024-02-21T08:26:07;100425.03;;;9.44;100.00
17072;BME280;7731;50.720;6.912;2024-02-21T08:28:42;100413.81;;;9.47;100.00
17072;BME280;7731;50.720;6.912;2024-02-21T08:31:21;100418.47;;;9.59;100.00
17072;BME280;7731;50.720;6.912;2024-02-21T08:33:55;100410.19;;;9.73;100.00
17072;BME280;7731;50.720;6.912;2024-02-21T08:36:30;100402.31;;;9.35;100.00
17072;BME280;7731;50.720;6.912;2024-02-21T08:39:04;100397.19;;;9.78;100.00
17072;BME280;7731;50.720;6.912;2024-02-21T08:41:36;100396.41;;;9.96;98.46
17072;BME280;7731;50.720;6.912;2024-02-21T08:44:29;100391.72;;;9.86;98.03
17072;BME280;7731;50.720;6.912;2024-02-21T08:47:02;100390.34;;;9.78;98.70
17072;BME280;7731;50.720;6.912;2024-02-21T08:49:33;100393.91;;;9.54;100.00
17072;BME280;7731;50.720;6.912;2024-02-21T08:52:06;100391.22;;;9.57;96.61
17072;BME280;7731;50.720;6.912;2024-02-21T08:54:36;100376.97;;;9.91;96.46
17072;BME280;7731;50.720;6.912;2024-02-21T08:57:10;100370.94;;;10.50;92.12
17072;BME280;7731;50.720;6.912;2024-02-21T08:59:41;100365.06;;;10.48;88.29
17072;BME280;7731;50.720;6.912;2024-02-21T09:02:16;100343.53;;;11.06;84.51
17072;BME280;7731;50.720;6.912;2024-02-21T09:04:47;100348.19;;;10.62;84.63
17072;BME280;7731;50.720;6.912;2024-02-21T09:07:17;100337.09;;;11.15;81.68
17072;BME280;7731;50.720;6.912;2024-02-21T09:10:03;100331.97;;;11.15;82.08
17072;BME280;7731;50.720;6.912;2024-02-21T09:12:34;100322.66;;;11.13;80.27
17072;BME280;7731;50.720;6.912;2024-02-21T09:15:06;100319.59;;;10.87;81.33
17072;BME280;7731;50.720;6.912;2024-02-21T09:17:39;100331.25;;;11.12;79.82
17072;BME280;7731;50.720;6.912;2024-02-21T09:20:12;100323.44;;;10.78;80.99
17072;BME280;7731;50.720;6.912;2024-02-21T09:22:45;100324.81;;;10.85;79.61
17072;BME280;7731;50.720;6.912;2024-02-21T09:25:21;100321.03;;;10.93;80.10
17072;BME280;7731;50.720;6.912;2024-02-21T09:27:54;100315.16;;;10.54;80.78
17072;BME280;7731;50.720;6.912;2024-02-21T09:30:25;100312.13;;;11.00;80.87
17072;BME280;7731;50.720;6.912;2024-02-21T09:32:58;100312.44;;;10.94;78.76
17072;BME280;7731;50.720;6.912;2024-02-21T09:35:30;100304.38;;;10.65;79.51
17072;BME280;7731;50.720;6.912;2024-02-21T09:38:07;100297.63;;;11.34;77.28
17072;BME280;7731;50.720;6.912;2024-02-21T09:40:38;100288.09;;;11.18;77.17
17072;BME280;7731;50.720;6.912;2024-02-21T09:43:09;100281.88;;;11.05;77.05
17072;BME280;7731;50.720;6.912;2024-02-21T09:45:47;100281.19;;;11.19;78.36
17072;BME280;7731;50.720;6.912;2024-02-21T09:48:44;100275.72;;;11.42;75.66
17072;BME280;7731;50.720;6.912;2024-02-21T09:51:27;100268.28;;;11.20;75.76
17072;BME280;7731;50.720;6.912;2024-02-21T09:54:04;100263.13;;;11.20;74.28
17072;BME280;7731;50.720;6.912;2024-02-21T09:56:45;100259.94;;;11.33;76.05
17072;BME280;7731;50.720;6.912;2024-02-21T09:59:17;100244.22;;;11.04;76.18
17072;BME280;7731;50.720;6.912;2024-02-21T10:01:47;100245.88;;;11.22;75.25
17072;BME280;7731;50.720;6.912;2024-02-21T10:04:21;100237.84;;;11.46;73.86
17072;BME280;7731;50.720;6.912;2024-02-21T10:06:55;100237.44;;;11.54;73.04
17072;BME280;7731;50.720;6.912;2024-02-21T10:09:29;100245.41;;;11.32;72.16
17072;BME280;7731;50.720;6.912;2024-02-21T10:12:14;100242.81;;;11.83;71.65
17072;BME280;7731;50.720;6.912;2024-02-21T10:15:00;100248.28;;;11.43;72.63
17072;BME280;7731;50.720;6.912;2024-02-21T10:17:31;100246.44;;;11.45;73.14
17072;BME280;7731;50.720;6.912;2024-02-21T10:20:12;100249.41;;;11.37;72.90
17072;BME280;7731;50.720;6.912;2024-02-21T10:22:45;100245.75;;;11.08;74.43
17072;BME280;7731;50.720;6.912;2024-02-21T10:25:15;100253.59;;;11.40;74.04
17072;BME280;7731;50.720;6.912;2024-02-21T10:27:48;100248.34;;;11.75;71.88
17072;BME280;7731;50.720;6.912;2024-02-21T10:30:20;100238.59;;;11.97;70.80
17072;BME280;7731;50.720;6.912;2024-02-21T10:32:51;100234.06;;;11.85;70.40
17072;BME280;7731;50.720;6.912;2024-02-21T10:35:32;100226.44;;;12.31;69.71
17072;BME280;7731;50.720;6.912;2024-02-21T10:38:06;100229.69;;;12.19;67.72
17072;BME280;7731;50.720;6.912;2024-02-21T10:40:36;100226.78;;;12.25;68.08
17072;BME280;7731;50.720;6.912;2024-02-21T10:43:12;100223.06;;;11.99;69.01
17072;BME280;7731;50.720;6.912;2024-02-21T10:45:52;100227.53;;;11.46;72.03
17072;BME280;7731;50.720;6.912;2024-02-21T10:48:36;100225.72;;;11.48;72.52
17072;BME280;7731;50.720;6.912;2024-02-21T10:51:16;100226.19;;;11.88;71.25
17072;BME280;7731;50.720;6.912;2024-02-21T10:54:01;100224.47;;;11.89;69.50
17072;BME280;7731;50.720;6.912;2024-02-21T10:56:35;100215.63;;;11.77;70.71
17072;BME280;7731;50.720;6.912;2024-02-21T10:59:08;100210.06;;;11.69;72.02
17072;BME280;7731;50.720;6.912;2024-02-21T11:01:39;100201.38;;;11.87;72.46
17072;BME280;7731;50.720;6.912;2024-02-21T11:04:11;100203.41;;;11.98;70.86
17072;BME280;7731;50.720;6.912;2024-02-21T11:06:44;100199.03;;;11.83;71.58
17072;BME280;7731;50.720;6.912;2024-02-21T11:09:30;100195.31;;;11.39;72.11
17072;BME280;7731;50.720;6.912;2024-02-21T11:12:04;100178.19;;;11.87;71.42
17072;BME280;7731;50.720;6.912;2024-02-21T11:14:39;100180.63;;;11.90;70.50
17072;BME280;7731;50.720;6.912;2024-02-21T11:17:21;100163.56;;;11.88;71.06
17072;BME280;7731;50.720;6.912;2024-02-21T11:19:54;100147.16;;;11.90;69.73
17072;BME280;7731;50.720;6.912;2024-02-21T11:22:27;100139.41;;;11.90;70.15
17072;BME280;7731;50.720;6.912;2024-02-21T11:25:07;100138.44;;;12.09;69.53
17072;BME280;7731;50.720;6.912;2024-02-21T11:27:46;100122.50;;;11.70;70.95
17072;BME280;7731;50.720;6.912;2024-02-21T11:30:17;100119.56;;;11.60;73.34
17072;BME280;7731;50.720;6.912;2024-02-21T11:32:49;100105.53;;;11.50;73.01
17072;BME280;7731;50.720;6.912;2024-02-21T11:35:20;100088.94;;;11.72;73.22
17072;BME280;7731;50.720;6.912;2024-02-21T11:37:53;100077.31;;;11.65;72.76
17072;BME280;7731;50.720;6.912;2024-02-21T11:40:26;100083.78;;;11.56;73.36
17072;BME280;7731;50.720;6.912;2024-02-21T11:42:59;100066.19;;;11.48;74.01
17072;BME280;7731;50.720;6.912;2024-02-21T11:45:32;100059.56;;;11.28;74.89
17072;BME280;7731;50.720;6.912;2024-02-21T11:48:05;100049.28;;;11.60;73.67
17072;BME280;7731;50.720;6.912;2024-02-21T11:50:36;100046.94;;;11.55;73.68
17072;BME280;7731;50.720;6.912;2024-02-21T11:53:09;100030.19;;;11.48;74.13
17072;BME280;7731;50.720;6.912;2024-02-21T11:55:40;100048.63;;;11.24;76.60
17072;BME280;7731;50.720;6.912;2024-02-21T11:58:16;100026.03;;;11.30;77.09
17072;BME280;7731;50.720;6.912;2024-02-21T12:00:46;100024.53;;;11.25;78.35
17072;BME280;7731;50.720;6.912;2024-02-21T12:03:17;100023.53;;;10.80;82.38
17072;BME280;7731;50.720;6.912;2024-02-21T12:05:50;100019.28;;;10.79;84.06
17072;BME280;7731;50.720;6.912;2024-02-21T12:08:24;100013.06;;;10.83;82.44
17072;BME280;7731;50.720;6.912;2024-02-21T12:11:19;100003.13;;;10.77;84.64
17072;BME280;7731;50.720;6.912;2024-02-21T12:13:59;99991.06;;;10.95;84.87
17072;BME280;7731;50.720;6.912;2024-02-21T12:16:33;99973.78;;;11.13;83.15
17072;BME280;7731;50.720;6.912;2024-02-21T12:19:05;99974.38;;;11.18;81.37
17072;BME280;7731;50.720;6.912;2024-02-21T12:21:36;99972.69;;;10.85;83.73
17072;BME280;7731;50.720;6.912;2024-02-21T12:24:20;99966.41;;;11.07;83.08
17072;BME280;7731;50.720;6.912;2024-02-21T12:26:51;99962.69;;;10.97;82.27
17072;BME280;7731;50.720;6.912;2024-02-21T12:29:22;99966.00;;;10.83;81.17
17072;BME280;7731;50.720;6.912;2024-02-21T12:31:53;99958.03;;;10.87;82.26
17072;BME280;7731;50.720;6.912;2024-02-21T12:34:25;99941.75;;;11.35;79.91
17072;BME280;7731;50.720;6.912;2024-02-21T12:37:15;99922.53;;;11.10;79.65
17072;BME280;7731;50.720;6.912;2024-02-21T12:39:58;99908.94;;;11.08;79.33
17072;BME280;7731;50.720;6.912;2024-02-21T12:42:32;99902.63;;;10.98;78.93
17072;BME280;7731;50.720;6.912;2024-02-21T12:45:03;99907.13;;;10.94;80.01
17072;BME280;7731;50.720;6.912;2024-02-21T12:47:33;99893.53;;;10.92;79.53
17072;BME280;7731;50.720;6.912;2024-02-21T12:50:10;99889.63;;;11.01;79.46
17072;BME280;7731;50.720;6.912;2024-02-21T12:52:42;99869.66;;;11.06;79.38
17072;BME280;7731;50.720;6.912;2024-02-21T12:55:15;99849.75;;;10.94;80.10
17072;BME280;7731;50.720;6.912;2024-02-21T12:57:46;99846.09;;;10.98;79.77
17072;BME280;7731;50.720;6.912;2024-02-21T13:00:17;99839.31;;;10.97;79.98
17072;BME280;7731;50.720;6.912;2024-02-21T13:02:48;99823.88;;;10.97;78.58
17072;BME280;7731;50.720;6.912;2024-02-21T13:05:19;99813.56;;;11.13;78.39
17072;BME280;7731;50.720;6.912;2024-02-21T13:07:50;99784.56;;;10.95;78.22
17072;BME280;7731;50.720;6.912;2024-02-21T13:10:24;99771.72;;;10.95;79.96
17072;BME280;7731;50.720;6.912;2024-02-21T13:12:57;99768.06;;;10.68;79.59
17072;BME280;7731;50.720;6.912;2024-02-21T13:15:31;99755.81;;;10.58;80.71
17072;BME280;7731;50.720;6.912;2024-02-21T13:18:04;99740.22;;;10.61;79.56
17072;BME280;7731;50.720;6.912;2024-02-21T13:20:38;99720.19;;;10.51;80.54
17072;BME280;7731;50.720;6.912;2024-02-21T13:23:08;99688.84;;;10.61;81.10
17072;BME280;7731;50.720;6.912;2024-02-21T13:25:44;99660.72;;;10.27;81.78
17072;BME280;7731;50.720;6.912;2024-02-21T13:28:20;99663.84;;;10.48;83.47
17072;BME280;7731;50.720;6.912;2024-02-21T13:30:50;99667.94;;;10.67;82.61
17072;BME280;7731;50.720;6.912;2024-02-21T13:33:24;99699.81;;;10.48;82.21
17072;BME280;7731;50.720;6.912;2024-02-21T13:36:03;99709.56;;;10.58;81.36